sensor_id;sensor_type;location;lat;lon;timestamp;pressure;altitude;pressure_sealevel;temperature;humidity
59315;BME280;46521;50.160;20.802;2022-12-07T00:06:11;99216.41;;;1.37;86.39
59315;BME280;46521;50.160;20.802;2022-12-07T00:16:16;99231.09;;;1.26;86.59
59315;BME280;46521;50.160;20.802;2022-12-07T00:36:23;99223.05;;;1.18;86.41
59315;BME280;46521;50.160;20.802;2022-12-07T00:46:25;99226.13;;;1.12;85.89
59315;BME280;46521;50.160;20.802;2022-12-07T00:56:28;99233.94;;;1.01;86.27
59315;BME280;46521;50.160;20.802;2022-12-07T01:06:30;99217.61;;;0.99;85.94
59315;BME280;46521;50.160;20.802;2022-12-07T01:16:32;99206.00;;;1.03;86.23
59315;BME280;46521;50.160;20.802;2022-12-07T01:26:34;99210.73;;;1.09;86.22
59315;BME280;46521;50.160;20.802;2022-12-07T01:36:36;99208.97;;;1.21;86.32
59315;BME280;46521;50.160;20.802;2022-12-07T01:46:38;99206.47;;;1.31;86.26
59315;BME280;46521;50.160;20.802;2022-12-07T01:56:42;99208.95;;;1.32;85.71
59315;BME280;46521;50.160;20.802;2022-12-07T02:06:45;99203.87;;;1.31;86.22
59315;BME280;46521;50.160;20.802;2022-12-07T02:47:44;99185.97;;;1.37;86.38
59315;BME280;46521;50.160;20.802;2022-12-07T03:08:20;99181.09;;;1.44;86.71
59315;BME280;46521;50.160;20.802;2022-12-07T03:18:24;99166.19;;;1.46;86.74
59315;BME280;46521;50.160;20.802;2022-12-07T03:28:34;99172.22;;;1.47;86.17
59315;BME280;46521;50.160;20.802;2022-12-07T03:38:55;99166.76;;;1.50;86.11
59315;BME280;46521;50.160;20.802;2022-12-07T03:49:30;99151.94;;;1.50;86.17
59315;BME280;46521;50.160;20.802;2022-12-07T03:59:32;99157.03;;;1.52;85.94
59315;BME280;46521;50.160;20.802;2022-12-07T04:09:34;99153.73;;;1.50;85.99
59315;BME280;46521;50.160;20.802;2022-12-07T04:19:36;99153.28;;;1.44;86.37
59315;BME280;46521;50.160;20.802;2022-12-07T04:29:37;99146.77;;;1.39;86.53
59315;BME280;46521;50.160;20.802;2022-12-07T04:39:39;99145.22;;;1.36;86.41
59315;BME280;46521;50.160;20.802;2022-12-07T04:49:40;99140.13;;;1.35;86.50
59315;BME280;46521;50.160;20.802;2022-12-07T04:59:41;99134.09;;;1.34;86.64
59315;BME280;46521;50.160;20.802;2022-12-07T05:09:43;99126.16;;;1.36;86.74
59315;BME280;46521;50.160;20.802;2022-12-07T05:19:44;99127.83;;;1.37;86.29
59315;BME280;46521;50.160;20.802;2022-12-07T05:29:46;99123.44;;;1.37;86.66
59315;BME280;46521;50.160;20.802;2022-12-07T05:39:47;99123.77;;;1.44;86.23
59315;BME280;46521;50.160;20.802;2022-12-07T05:49:48;99124.37;;;1.48;86.70
59315;BME280;46521;50.160;20.802;2022-12-07T05:59:50;99133.82;;;1.49;86.24
59315;BME280;46521;50.160;20.802;2022-12-07T06:09:51;99130.03;;;1.53;86.24
59315;BME280;46521;50.160;20.802;2022-12-07T06:19:53;99125.76;;;1.52;86.30
59315;BME280;46521;50.160;20.802;2022-12-07T06:29:55;99131.94;;;1.51;86.32
59315;BME280;46521;50.160;20.802;2022-12-07T06:39:56;99143.67;;;1.45;86.39
59315;BME280;46521;50.160;20.802;2022-12-07T06:49:57;99140.61;;;1.40;86.50
59315;BME280;46521;50.160;20.802;2022-12-07T06:59:59;99147.70;;;1.38;87.02
59315;BME280;46521;50.160;20.802;2022-12-07T07:10:00;99139.88;;;1.38;86.72
59315;BME280;46521;50.160;20.802;2022-12-07T07:20:02;99148.67;;;1.37;86.60
59315;BME280;46521;50.160;20.802;2022-12-07T07:30:04;99147.83;;;1.36;86.52
59315;BME280;46521;50.160;20.802;2022-12-07T07:40:07;99144.28;;;1.37;86.64
59315;BME280;46521;50.160;20.802;2022-12-07T07:50:09;99153.88;;;1.37;86.97
59315;BME280;46521;50.160;20.802;2022-12-07T08:00:12;99148.67;;;1.37;86.78
59315;BME280;46521;50.160;20.802;2022-12-07T08:10:14;99156.03;;;1.32;86.33
59315;BME280;46521;50.160;20.802;2022-12-07T08:20:16;99166.30;;;1.33;87.02
59315;BME280;46521;50.160;20.802;2022-12-07T08:30:18;99173.06;;;1.36;86.54
59315;BME280;46521;50.160;20.802;2022-12-07T08:40:20;99179.94;;;1.37;86.78
59315;BME280;46521;50.160;20.802;2022-12-07T08:50:22;99177.79;;;1.42;86.62
59315;BME280;46521;50.160;20.802;2022-12-07T09:00:24;99175.55;;;1.37;86.32
59315;BME280;46521;50.160;20.802;2022-12-07T09:10:27;99182.30;;;1.40;86.80
59315;BME280;46521;50.160;20.802;2022-12-07T09:20:29;99183.13;;;1.40;86.53
59315;BME280;46521;50.160;20.802;2022-12-07T09:30:31;99176.13;;;1.41;86.55
59315;BME280;46521;50.160;20.802;2022-12-07T09:40:33;99177.06;;;1.51;87.00
59315;BME280;46521;50.160;20.802;2022-12-07T09:50:34;99172.78;;;1.61;86.96
59315;BME280;46521;50.160;20.802;2022-12-07T10:00:35;99165.63;;;1.75;86.98
59315;BME280;46521;50.160;20.802;2022-12-07T10:10:37;99159.55;;;1.86;86.89
59315;BME280;46521;50.160;20.802;2022-12-07T10:20:39;99155.25;;;1.96;87.10
59315;BME280;46521;50.160;20.802;2022-12-07T10:31:22;99157.92;;;2.06;86.33
59315;BME280;46521;50.160;20.802;2022-12-07T10:41:16;99160.03;;;2.12;86.99
59315;BME280;46521;50.160;20.802;2022-12-07T11:01:57;99155.25;;;1.96;86.70
59315;BME280;46521;50.160;20.802;2022-12-07T11:23:07;99153.40;;;2.08;86.56
59315;BME280;46521;50.160;20.802;2022-12-07T11:32:55;99147.37;;;2.07;86.45
59315;BME280;46521;50.160;20.802;2022-12-07T11:43:09;99144.25;;;2.13;86.27
59315;BME280;46521;50.160;20.802;2022-12-07T11:53:24;99148.84;;;2.21;86.27
59315;BME280;46521;50.160;20.802;2022-12-07T12:03:34;99140.04;;;2.22;85.65
59315;BME280;46521;50.160;20.802;2022-12-07T12:24:24;99142.46;;;2.14;86.23
59315;BME280;46521;50.160;20.802;2022-12-07T12:34:37;99139.29;;;2.10;85.41
59315;BME280;46521;50.160;20.802;2022-12-07T12:44:40;99132.03;;;2.14;85.71
59315;BME280;46521;50.160;20.802;2022-12-07T12:55:00;99117.66;;;2.20;85.89
59315;BME280;46521;50.160;20.802;2022-12-07T13:05:03;99114.72;;;2.34;85.88
59315;BME280;46521;50.160;20.802;2022-12-07T13:15:37;99110.06;;;2.38;85.46
59315;BME280;46521;50.160;20.802;2022-12-07T13:25:51;99109.12;;;2.39;85.33
59315;BME280;46521;50.160;20.802;2022-12-07T13:35:55;99103.05;;;2.38;85.89
59315;BME280;46521;50.160;20.802;2022-12-07T13:45:58;99107.58;;;2.36;85.63
59315;BME280;46521;50.160;20.802;2022-12-07T13:56:01;99110.70;;;2.30;85.48
59315;BME280;46521;50.160;20.802;2022-12-07T14:26:24;99129.60;;;2.22;85.71
59315;BME280;46521;50.160;20.802;2022-12-07T14:36:26;99121.03;;;2.10;85.25
59315;BME280;46521;50.160;20.802;2022-12-07T14:46:27;99122.28;;;1.95;85.06
59315;BME280;46521;50.160;20.802;2022-12-07T14:56:29;99121.72;;;1.91;84.92
59315;BME280;46521;50.160;20.802;2022-12-07T15:06:30;99118.64;;;1.86;84.28
59315;BME280;46521;50.160;20.802;2022-12-07T15:16:32;99122.72;;;1.79;84.35
59315;BME280;46521;50.160;20.802;2022-12-07T15:26:33;99130.41;;;1.80;83.99
59315;BME280;46521;50.160;20.802;2022-12-07T15:36:35;99120.80;;;1.81;84.19
59315;BME280;46521;50.160;20.802;2022-12-07T15:46:39;99122.22;;;1.85;83.38
59315;BME280;46521;50.160;20.802;2022-12-07T15:56:41;99120.30;;;1.87;83.31
59315;BME280;46521;50.160;20.802;2022-12-07T16:06:42;99130.30;;;1.82;82.94
59315;BME280;46521;50.160;20.802;2022-12-07T16:16:43;99139.18;;;1.79;83.25
59315;BME280;46521;50.160;20.802;2022-12-07T16:26:45;99155.64;;;1.80;83.18
59315;BME280;46521;50.160;20.802;2022-12-07T16:36:47;99170.59;;;1.78;82.66
59315;BME280;46521;50.160;20.802;2022-12-07T16:46:48;99176.17;;;1.73;82.98
59315;BME280;46521;50.160;20.802;2022-12-07T16:56:50;99172.88;;;1.71;82.50
59315;BME280;46521;50.160;20.802;2022-12-07T17:06:51;99174.38;;;1.74;82.50
59315;BME280;46521;50.160;20.802;2022-12-07T17:16:53;99180.33;;;1.76;82.61
59315;BME280;46521;50.160;20.802;2022-12-07T17:26:54;99175.11;;;1.76;82.53
59315;BME280;46521;50.160;20.802;2022-12-07T17:36:56;99182.94;;;1.76;82.70
59315;BME280;46521;50.160;20.802;2022-12-07T17:46:57;99185.54;;;1.76;82.32
59315;BME280;46521;50.160;20.802;2022-12-07T17:56:59;99192.63;;;1.74;82.47
59315;BME280;46521;50.160;20.802;2022-12-07T18:07:01;99184.84;;;1.62;81.97
59315;BME280;46521;50.160;20.802;2022-12-07T18:17:02;99177.55;;;1.45;82.10
59315;BME280;46521;50.160;20.802;2022-12-07T18:27:05;99188.47;;;1.28;81.86
59315;BME280;46521;50.160;20.802;2022-12-07T18:37:06;99173.09;;;1.13;81.51
59315;BME280;46521;50.160;20.802;2022-12-07T18:47:08;99180.66;;;1.05;81.70
59315;BME280;46521;50.160;20.802;2022-12-07T18:57:09;99183.77;;;0.99;81.61
59315;BME280;46521;50.160;20.802;2022-12-07T19:07:11;99194.41;;;0.96;81.83
59315;BME280;46521;50.160;20.802;2022-12-07T19:17:13;99199.73;;;1.05;81.40
59315;BME280;46521;50.160;20.802;2022-12-07T19:27:15;99195.45;;;1.16;81.68
59315;BME280;46521;50.160;20.802;2022-12-07T19:37:17;99201.73;;;1.24;81.78
59315;BME280;46521;50.160;20.802;2022-12-07T19:47:19;99203.87;;;1.31;81.53
59315;BME280;46521;50.160;20.802;2022-12-07T19:57:20;99207.63;;;1.38;80.94
59315;BME280;46521;50.160;20.802;2022-12-07T20:07:22;99200.30;;;1.43;80.96
59315;BME280;46521;50.160;20.802;2022-12-07T20:17:23;99202.79;;;1.44;80.67
59315;BME280;46521;50.160;20.802;2022-12-07T20:27:24;99206.91;;;1.47;80.72
59315;BME280;46521;50.160;20.802;2022-12-07T20:37:26;99203.37;;;1.48;80.69
59315;BME280;46521;50.160;20.802;2022-12-07T20:47:27;99204.91;;;1.51;80.82
59315;BME280;46521;50.160;20.802;2022-12-07T20:57:29;99197.91;;;1.51;80.23
59315;BME280;46521;50.160;20.802;2022-12-07T21:07:30;99199.09;;;1.58;80.10
59315;BME280;46521;50.160;20.802;2022-12-07T21:17:32;99209.86;;;1.65;79.78
59315;BME280;46521;50.160;20.802;2022-12-07T21:27:33;99204.52;;;1.67;79.71
59315;BME280;46521;50.160;20.802;2022-12-07T21:37:35;99207.13;;;1.67;79.86
59315;BME280;46521;50.160;20.802;2022-12-07T21:47:37;99214.58;;;1.71;79.47
59315;BME280;46521;50.160;20.802;2022-12-07T21:57:38;99208.28;;;1.74;79.89
59315;BME280;46521;50.160;20.802;2022-12-07T22:07:39;99208.03;;;1.77;79.65
59315;BME280;46521;50.160;20.802;2022-12-07T22:17:41;99211.37;;;1.79;79.36
59315;BME280;46521;50.160;20.802;2022-12-07T22:27:42;99224.53;;;1.77;79.46
59315;BME280;46521;50.160;20.802;2022-12-07T22:37:44;99230.44;;;1.79;79.09
59315;BME280;46521;50.160;20.802;2022-12-07T22:47:45;99228.65;;;1.80;79.08
59315;BME280;46521;50.160;20.802;2022-12-07T22:57:47;99228.89;;;1.77;79.08
59315;BME280;46521;50.160;20.802;2022-12-07T23:07:48;99221.07;;;1.77;78.47
59315;BME280;46521;50.160;20.802;2022-12-07T23:17:49;99227.50;;;1.73;79.00
59315;BME280;46521;50.160;20.802;2022-12-07T23:27:51;99240.05;;;1.68;78.37
59315;BME280;46521;50.160;20.802;2022-12-07T23:37:52;99245.26;;;1.68;78.64
